Time;durP1;ratioP1;P1;durP2;ratioP2;P2;SDS_P1;SDS_P2;PMS_P1;PMS_P2;Temp;Humidity;BMP_temperature;BMP_pressure;BME280_temperature;BME280_humidity;BME280_pressure;Samples;Min_cycle;Max_cycle;Signal;HPM_P1;HPM_P2
2021/12/23 00:00:04;;;;;;;;;57.75;42.25;;;;;;;;4968015;28;46748;-76
2021/12/23 00:02:29;;;;;;;;;55.25;42.00;;;;;;;;4968276;28;45958;-77
2021/12/23 00:04:55;;;;;;;;;54.00;36.67;;;;;;;;4980382;28;45489;-76
2021/12/23 00:07:20;;;;;;;;;55.00;40.33;;;;;;;;4954237;28;46053;-75
2021/12/23 00:12:13;;;;;;;;;49.25;40.50;;;;;;;;4955008;28;45505;-76
2021/12/23 00:14:39;;;;;;;;;62.25;42.25;;;;;;;;4966287;28;45640;-76
2021/12/23 00:25:14;;;;;;;;;59.25;40.50;;;;;;;;5000646;28;45960;-76
2021/12/23 00:27:39;;;;;;;;;57.67;41.00;;;;;;;;5007215;28;45639;-76
2021/12/23 00:30:05;;;;;;;;;58.33;37.00;;;;;;;;5009116;28;46811;-76
2021/12/23 00:32:30;;;;;;;;;54.75;40.00;;;;;;;;4989915;28;45986;-76
2021/12/23 00:34:55;;;;;;;;;53.33;39.33;;;;;;;;5011229;28;45568;-77
2021/12/23 00:37:20;;;;;;;;;53.33;37.33;;;;;;;;5011982;28;45470;-76
2021/12/23 00:39:46;;;;;;;;;50.00;36.33;;;;;;;;5011628;28;46109;-76
2021/12/23 00:42:11;;;;;;;;;55.75;41.75;;;;;;;;5010601;28;45591;-76
2021/12/23 00:44:39;;;;;;;;;51.25;37.75;;;;;;;;4997229;28;45639;-77
2021/12/23 00:47:05;;;;;;;;;59.50;38.75;;;;;;;;5012077;28;45911;-76
2021/12/23 00:49:30;;;;;;;;;51.75;37.75;;;;;;;;5011713;28;45404;-77
2021/12/23 00:51:57;;;;;;;;;56.50;43.00;;;;;;;;5011853;28;45484;-76
2021/12/23 00:54:22;;;;;;;;;57.25;40.75;;;;;;;;5009339;28;45481;-76
2021/12/23 00:56:49;;;;;;;;;55.00;41.33;;;;;;;;4962610;28;45531;-76
2021/12/23 00:59:15;;;;;;;;;56.00;43.25;;;;;;;;4968877;28;46230;-76
2021/12/23 01:01:41;;;;;;;;;53.00;40.33;;;;;;;;4964823;28;45386;-76
2021/12/23 01:04:09;;;;;;;;;57.00;36.25;;;;;;;;4959451;28;45521;-76
2021/12/23 01:06:34;;;;;;;;;48.50;37.00;;;;;;;;4956250;28;45696;-76
2021/12/23 01:09:00;;;;;;;;;37.67;30.33;;;;;;;;4955241;28;45403;-76
2021/12/23 01:11:26;;;;;;;;;65.00;44.33;;;;;;;;4968219;28;45549;-76
2021/12/23 01:14:25;;;;;;;;;46.00;38.50;;;;;;;;4967968;28;45343;-76
2021/12/23 01:19:22;;;;;;;;;60.50;40.50;;;;;;;;4963088;28;46345;-76
2021/12/23 01:21:48;;;;;;;;;49.25;31.00;;;;;;;;4959439;28;45486;-77
2021/12/23 01:24:13;;;;;;;;;54.00;40.00;;;;;;;;5022585;28;45498;-76
2021/12/23 01:26:39;;;;;;;;;59.67;40.00;;;;;;;;4969157;28;45542;-76
2021/12/23 01:29:04;;;;;;;;;58.50;40.50;;;;;;;;4968816;28;46118;-76
2021/12/23 01:31:30;;;;;;;;;56.00;35.25;;;;;;;;4966002;28;45652;-76
2021/12/23 01:33:56;;;;;;;;;64.75;41.50;;;;;;;;4962661;28;45507;-77
2021/12/23 01:36:22;;;;;;;;;58.75;41.75;;;;;;;;4965595;28;45894;-76
2021/12/23 01:38:48;;;;;;;;;59.50;39.25;;;;;;;;4967533;28;46113;-76
2021/12/23 01:41:13;;;;;;;;;58.25;40.75;;;;;;;;4966527;28;45837;-76
2021/12/23 01:43:38;;;;;;;;;51.67;39.33;;;;;;;;4967332;28;45745;-76
2021/12/23 01:46:03;;;;;;;;;43.33;37.67;;;;;;;;4959965;28;45759;-76
2021/12/23 01:48:28;;;;;;;;;55.00;41.00;;;;;;;;4957220;28;45672;-76
2021/12/23 01:50:54;;;;;;;;;57.33;39.00;;;;;;;;4955826;28;45676;-75
2021/12/23 01:53:20;;;;;;;;;58.50;41.75;;;;;;;;4968277;28;46237;-76
2021/12/23 01:55:45;;;;;;;;;46.75;34.00;;;;;;;;4966979;28;45689;-76
2021/12/23 01:58:12;;;;;;;;;52.50;36.00;;;;;;;;4971619;28;46124;-76
2021/12/23 02:00:39;;;;;;;;;58.50;39.00;;;;;;;;4966388;28;45656;-78
2021/12/23 02:03:05;;;;;;;;;61.75;39.75;;;;;;;;4967739;28;45561;-78
2021/12/23 02:05:30;;;;;;;;;50.50;35.00;;;;;;;;4953732;28;45494;-78
2021/12/23 02:07:56;;;;;;;;;33.50;31.75;;;;;;;;4987784;28;47422;-78
2021/12/23 02:10:22;;;;;;;;;62.00;42.00;;;;;;;;4960873;28;45494;-79
2021/12/23 02:12:48;;;;;;;;;53.50;41.75;;;;;;;;4964223;28;45521;-78
2021/12/23 02:15:14;;;;;;;;;58.50;36.00;;;;;;;;4965739;28;45545;-78
2021/12/23 02:17:40;;;;;;;;;53.25;36.50;;;;;;;;4954171;28;45695;-78
2021/12/23 02:20:07;;;;;;;;;49.50;35.50;;;;;;;;4953825;28;45503;-78
2021/12/23 02:22:32;;;;;;;;;58.75;41.50;;;;;;;;4964820;28;45594;-79
2021/12/23 02:24:58;;;;;;;;;56.67;40.00;;;;;;;;4965265;28;45453;-78
2021/12/23 02:27:23;;;;;;;;;55.67;36.00;;;;;;;;4970903;28;45662;-78
2021/12/23 02:29:48;;;;;;;;;38.00;29.33;;;;;;;;4967516;28;45722;-78
2021/12/23 02:32:13;;;;;;;;;62.33;39.67;;;;;;;;4969059;28;45398;-78
2021/12/23 02:34:39;;;;;;;;;50.33;40.67;;;;;;;;4964846;28;46487;-78
2021/12/23 02:37:04;;;;;;;;;38.67;35.00;;;;;;;;4952038;28;47112;-78
2021/12/23 02:39:29;;;;;;;;;49.75;40.50;;;;;;;;4954792;28;45544;-79
2021/12/23 02:41:55;;;;;;;;;49.25;35.75;;;;;;;;4954014;28;45781;-78
2021/12/23 02:44:20;;;;;;;;;53.75;40.00;;;;;;;;4967921;28;45424;-79
2021/12/23 02:46:46;;;;;;;;;50.00;38.25;;;;;;;;4955897;28;45590;-78
2021/12/23 02:49:11;;;;;;;;;54.33;38.33;;;;;;;;4959546;28;45794;-78
2021/12/23 02:51:37;;;;;;;;;42.50;31.75;;;;;;;;4958794;28;45548;-78
2021/12/23 02:54:02;;;;;;;;;45.50;38.25;;;;;;;;4965252;28;46353;-78
2021/12/23 02:56:28;;;;;;;;;57.75;37.50;;;;;;;;4968710;28;46028;-78
2021/12/23 02:58:53;;;;;;;;;46.50;36.50;;;;;;;;4967161;28;45385;-78
2021/12/23 03:01:20;;;;;;;;;56.00;38.33;;;;;;;;4965301;28;45455;-78
2021/12/23 03:03:45;;;;;;;;;56.75;38.50;;;;;;;;4957330;28;45638;-78
2021/12/23 03:06:11;;;;;;;;;60.50;41.75;;;;;;;;4951220;28;45594;-78
2021/12/23 03:08:36;;;;;;;;;57.00;40.50;;;;;;;;4959276;28;45490;-79
2021/12/23 03:11:03;;;;;;;;;55.67;39.00;;;;;;;;4956184;28;45550;-79
2021/12/23 03:13:28;;;;;;;;;50.50;38.00;;;;;;;;4965125;28;45410;-78
2021/12/23 03:15:54;;;;;;;;;47.50;33.75;;;;;;;;4964130;28;45422;-78
2021/12/23 03:18:19;;;;;;;;;49.50;39.50;;;;;;;;4969026;28;45639;-79
2021/12/23 03:20:44;;;;;;;;;53.67;39.67;;;;;;;;4953707;28;45502;-78
2021/12/23 03:23:10;;;;;;;;;49.67;39.00;;;;;;;;4953908;28;45955;-78
2021/12/23 03:25:35;;;;;;;;;57.33;41.33;;;;;;;;4965865;28;46697;-78
2021/12/23 03:28:00;;;;;;;;;50.25;39.00;;;;;;;;4959489;28;45853;-78
2021/12/23 03:30:26;;;;;;;;;52.33;37.00;;;;;;;;5013517;28;45539;-78
2021/12/23 03:32:51;;;;;;;;;53.67;39.67;;;;;;;;4959587;28;45478;-78
2021/12/23 03:35:16;;;;;;;;;48.33;40.67;;;;;;;;4967515;28;46907;-78
2021/12/23 03:37:42;;;;;;;;;47.25;37.00;;;;;;;;4964855;28;45545;-79
2021/12/23 03:40:08;;;;;;;;;58.50;39.50;;;;;;;;4964051;28;45496;-78
2021/12/23 03:42:33;;;;;;;;;60.25;39.25;;;;;;;;4958351;28;45729;-78
2021/12/23 03:44:58;;;;;;;;;50.50;36.50;;;;;;;;4952726;28;45523;-78
2021/12/23 03:47:24;;;;;;;;;47.33;32.67;;;;;;;;4968177;28;45367;-82
2021/12/23 03:49:49;;;;;;;;;47.67;39.33;;;;;;;;4956706;28;45351;-78
2021/12/23 03:52:14;;;;;;;;;49.00;39.00;;;;;;;;4959009;28;45513;-78
2021/12/23 03:54:39;;;;;;;;;43.67;37.33;;;;;;;;4963393;28;45639;-78
2021/12/23 03:57:05;;;;;;;;;59.50;37.75;;;;;;;;4962279;28;45612;-79
2021/12/23 03:59:30;;;;;;;;;57.50;38.50;;;;;;;;4968467;28;45391;-78
2021/12/23 04:01:55;;;;;;;;;47.67;39.00;;;;;;;;4998728;28;45567;-79
2021/12/23 04:04:21;;;;;;;;;50.33;36.67;;;;;;;;4964017;27;45540;-79
2021/12/23 04:06:46;;;;;;;;;56.33;42.67;;;;;;;;4952546;28;45592;-79
2021/12/23 04:09:11;;;;;;;;;52.67;39.00;;;;;;;;4971075;28;45577;-77
2021/12/23 04:11:36;;;;;;;;;57.00;39.33;;;;;;;;4956311;28;45297;-76
2021/12/23 04:14:01;;;;;;;;;46.67;34.33;;;;;;;;4967269;28;47070;-77
2021/12/23 04:16:27;;;;;;;;;47.33;39.33;;;;;;;;4967116;28;45272;-76
2021/12/23 04:18:54;;;;;;;;;47.33;36.00;;;;;;;;4966319;28;45505;-77
2021/12/23 04:21:19;;;;;;;;;43.00;34.00;;;;;;;;4957577;28;45454;-77
2021/12/23 04:23:44;;;;;;;;;51.00;39.00;;;;;;;;4968082;28;48156;-77
2021/12/23 04:26:10;;;;;;;;;52.25;36.25;;;;;;;;4965625;28;45780;-77
2021/12/23 04:28:44;;;;;;;;;48.00;35.00;;;;;;;;4964471;28;45445;-77
2021/12/23 04:31:10;;;;;;;;;52.50;35.50;;;;;;;;4964891;28;45395;-77
2021/12/23 04:33:35;;;;;;;;;55.33;39.00;;;;;;;;4964709;28;46749;-77
2021/12/23 04:36:00;;;;;;;;;40.33;35.33;;;;;;;;4957871;28;45567;-77
2021/12/23 04:38:25;;;;;;;;;49.33;34.67;;;;;;;;4954046;28;45386;-77
2021/12/23 04:40:50;;;;;;;;;41.00;35.00;;;;;;;;4968522;28;45491;-77
2021/12/23 04:43:16;;;;;;;;;40.00;27.00;;;;;;;;4958987;28;45534;-76
2021/12/23 04:45:41;;;;;;;;;53.00;35.33;;;;;;;;4958485;28;45469;-77
2021/12/23 04:48:06;;;;;;;;;57.33;38.33;;;;;;;;4960990;28;45412;-77
2021/12/23 04:50:31;;;;;;;;;41.67;30.67;;;;;;;;4967572;28;45529;-77
2021/12/23 04:52:57;;;;;;;;;46.67;37.33;;;;;;;;4953116;28;45472;-76
2021/12/23 04:55:22;;;;;;;;;48.33;32.33;;;;;;;;4956774;28;45582;-77
2021/12/23 04:57:47;;;;;;;;;52.00;38.67;;;;;;;;4966079;28;45422;-76
2021/12/23 05:00:15;;;;;;;;;47.33;34.67;;;;;;;;4967580;28;45503;-77
2021/12/23 05:02:41;;;;;;;;;40.75;29.50;;;;;;;;4969435;28;45720;-77
2021/12/23 05:05:06;;;;;;;;;55.25;39.75;;;;;;;;4969556;28;45378;-77
2021/12/23 05:07:31;;;;;;;;;50.00;36.50;;;;;;;;4956394;28;45457;-77
2021/12/23 05:09:57;;;;;;;;;50.67;38.00;;;;;;;;4959378;28;45462;-77
2021/12/23 05:12:23;;;;;;;;;52.33;37.00;;;;;;;;4958980;28;46176;-77
2021/12/23 05:14:48;;;;;;;;;50.25;39.00;;;;;;;;4965266;28;45811;-77
2021/12/23 05:17:13;;;;;;;;;40.33;34.00;;;;;;;;4962366;28;45699;-77
2021/12/23 05:19:39;;;;;;;;;44.00;37.50;;;;;;;;4968539;28;45555;-76
2021/12/23 05:22:04;;;;;;;;;49.33;33.00;;;;;;;;4965329;28;45423;-77
2021/12/23 05:24:29;;;;;;;;;48.25;38.75;;;;;;;;4965489;28;45436;-78
2021/12/23 05:26:55;;;;;;;;;47.67;37.00;;;;;;;;4967954;28;45843;-77
2021/12/23 05:29:20;;;;;;;;;43.00;36.00;;;;;;;;4966716;28;45518;-79
2021/12/23 05:31:45;;;;;;;;;54.00;37.25;;;;;;;;4956572;28;46281;-77
2021/12/23 05:34:11;;;;;;;;;43.67;35.00;;;;;;;;4963051;28;45477;-77
2021/12/23 05:36:36;;;;;;;;;47.25;35.75;;;;;;;;4961614;28;45567;-77
2021/12/23 05:39:02;;;;;;;;;23.00;14.00;;;;;;;;4967208;28;45535;-77
2021/12/23 05:41:27;;;;;;;;;52.00;36.25;;;;;;;;4963837;28;47645;-76
2021/12/23 05:43:53;;;;;;;;;40.33;30.67;;;;;;;;4957638;28;45978;-77
2021/12/23 05:46:19;;;;;;;;;48.00;34.75;;;;;;;;4964641;28;45435;-77
2021/12/23 05:48:44;;;;;;;;;50.67;32.33;;;;;;;;4963396;28;45628;-77
2021/12/23 05:51:09;;;;;;;;;41.33;35.33;;;;;;;;4967893;28;45593;-77
2021/12/23 05:53:34;;;;;;;;;51.00;34.33;;;;;;;;4952840;28;45445;-77
2021/12/23 05:55:59;;;;;;;;;44.00;39.33;;;;;;;;4969490;28;45626;-76
2021/12/23 05:58:25;;;;;;;;;52.33;35.33;;;;;;;;4953653;28;45952;-76
2021/12/23 06:00:53;;;;;;;;;42.67;30.67;;;;;;;;4963825;28;46622;-76
2021/12/23 06:03:18;;;;;;;;;50.50;36.75;;;;;;;;4958299;28;45478;-77
2021/12/23 06:05:43;;;;;;;;;46.50;36.50;;;;;;;;4966606;28;48123;-77
2021/12/23 06:08:08;;;;;;;;;50.00;39.00;;;;;;;;4968500;28;45409;-77
2021/12/23 06:10:34;;;;;;;;;48.00;36.33;;;;;;;;4965557;28;45359;-77
2021/12/23 06:12:59;;;;;;;;;35.00;27.67;;;;;;;;4960325;28;46379;-76
2021/12/23 06:15:24;;;;;;;;;46.00;30.67;;;;;;;;4955903;28;45506;-77
2021/12/23 06:17:50;;;;;;;;;56.75;38.75;;;;;;;;4986212;28;46285;-76
2021/12/23 06:20:15;;;;;;;;;53.33;38.33;;;;;;;;4967752;28;45681;-76
2021/12/23 06:22:40;;;;;;;;;47.00;37.50;;;;;;;;4966987;28;45406;-76
2021/12/23 06:25:07;;;;;;;;;52.00;38.00;;;;;;;;4964845;28;45870;-76
2021/12/23 06:27:33;;;;;;;;;52.75;37.50;;;;;;;;4962824;28;45511;-76
2021/12/23 06:29:58;;;;;;;;;34.50;32.50;;;;;;;;4956064;28;46485;-77
2021/12/23 06:32:23;;;;;;;;;46.67;34.00;;;;;;;;4967114;28;45377;-77
2021/12/23 06:34:49;;;;;;;;;40.33;38.00;;;;;;;;4985250;28;45406;-76
2021/12/23 06:37:14;;;;;;;;;46.25;36.25;;;;;;;;4953158;28;45621;-77
2021/12/23 06:39:39;;;;;;;;;43.67;36.00;;;;;;;;4957414;28;45531;-77
2021/12/23 06:42:05;;;;;;;;;49.00;38.00;;;;;;;;4964510;28;45461;-77
2021/12/23 06:44:31;;;;;;;;;46.00;36.50;;;;;;;;4953366;28;45430;-76
2021/12/23 06:46:56;;;;;;;;;51.33;33.00;;;;;;;;4969006;28;45585;-77
2021/12/23 06:49:21;;;;;;;;;45.67;34.33;;;;;;;;4965166;28;45747;-76
2021/12/23 06:51:46;;;;;;;;;45.00;38.33;;;;;;;;4960675;28;45558;-76
2021/12/23 06:54:16;;;;;;;;;39.25;34.50;;;;;;;;4956985;28;45460;-77
2021/12/23 06:56:41;;;;;;;;;42.75;33.75;;;;;;;;4964585;28;45412;-77
2021/12/23 06:59:06;;;;;;;;;44.33;37.00;;;;;;;;4962042;28;45938;-76
2021/12/23 07:01:31;;;;;;;;;49.75;40.75;;;;;;;;4965373;28;45546;-76
2021/12/23 07:06:26;;;;;;;;;47.75;37.00;;;;;;;;4966681;28;45526;-76
2021/12/23 07:08:54;;;;;;;;;40.25;34.75;;;;;;;;4953986;28;45697;-77
2021/12/23 07:11:19;;;;;;;;;33.50;33.00;;;;;;;;4998889;28;45746;-77
2021/12/23 07:13:44;;;;;;;;;37.67;35.33;;;;;;;;4956267;28;45447;-76
2021/12/23 07:16:09;;;;;;;;;45.00;32.33;;;;;;;;4964827;28;45440;-77
2021/12/23 07:18:34;;;;;;;;;37.67;32.00;;;;;;;;4962055;28;45817;-77
2021/12/23 07:21:00;;;;;;;;;30.67;18.67;;;;;;;;4974622;28;45465;-78
2021/12/23 07:23:25;;;;;;;;;43.50;36.25;;;;;;;;4965859;28;45884;-78
2021/12/23 07:25:50;;;;;;;;;44.00;37.33;;;;;;;;4954876;28;45594;-77
2021/12/23 07:28:15;;;;;;;;;44.67;35.67;;;;;;;;4962647;28;45588;-77
2021/12/23 07:30:41;;;;;;;;;51.00;37.67;;;;;;;;4960996;28;45614;-77
2021/12/23 07:33:06;;;;;;;;;48.33;38.00;;;;;;;;4967235;28;45701;-76
2021/12/23 07:35:31;;;;;;;;;40.67;32.67;;;;;;;;4969882;28;45525;-76
2021/12/23 07:38:01;;;;;;;;;50.50;38.00;;;;;;;;4960412;28;47351;-76
2021/12/23 07:40:27;;;;;;;;;52.75;40.75;;;;;;;;4988967;28;45831;-76
2021/12/23 07:43:09;;;;;;;;;45.50;36.50;;;;;;;;4956999;28;45621;-76
2021/12/23 07:45:35;;;;;;;;;35.25;27.50;;;;;;;;4970448;28;45489;-76
2021/12/23 07:48:00;;;;;;;;;41.50;36.00;;;;;;;;4968326;28;47192;-76
2021/12/23 07:50:26;;;;;;;;;41.00;30.33;;;;;;;;4956693;28;45553;-76
2021/12/23 07:52:51;;;;;;;;;43.67;36.33;;;;;;;;4969471;28;45435;-76
2021/12/23 07:55:16;;;;;;;;;44.50;37.75;;;;;;;;4966693;28;45463;-76
2021/12/23 07:57:41;;;;;;;;;45.67;37.67;;;;;;;;4960560;28;47693;-76
2021/12/23 08:00:07;;;;;;;;;40.67;35.67;;;;;;;;4955974;28;45525;-76
2021/12/23 08:02:32;;;;;;;;;53.50;36.00;;;;;;;;4969833;28;45366;-76
2021/12/23 08:04:58;;;;;;;;;36.00;33.00;;;;;;;;4956090;28;45428;-77
2021/12/23 08:07:23;;;;;;;;;44.25;36.50;;;;;;;;4950798;28;48434;-78
2021/12/23 08:09:48;;;;;;;;;45.67;36.33;;;;;;;;4958522;28;45344;-78
2021/12/23 08:12:13;;;;;;;;;49.00;39.00;;;;;;;;5022829;28;45477;-78
2021/12/23 08:14:38;;;;;;;;;48.33;35.67;;;;;;;;4980977;28;45658;-78
2021/12/23 08:17:04;;;;;;;;;54.33;35.00;;;;;;;;4969354;28;46225;-79
2021/12/23 08:19:29;;;;;;;;;53.33;37.33;;;;;;;;4960259;28;45726;-78
2021/12/23 08:21:54;;;;;;;;;37.00;32.67;;;;;;;;4965707;28;45469;-78
2021/12/23 08:24:19;;;;;;;;;51.67;36.00;;;;;;;;4964700;28;45467;-79
2021/12/23 08:26:51;;;;;;;;;31.33;28.00;;;;;;;;4969408;28;45981;-78
2021/12/23 08:29:18;;;;;;;;;50.75;36.50;;;;;;;;4958107;28;45908;-78
2021/12/23 08:31:44;;;;;;;;;38.75;34.00;;;;;;;;4979342;27;45730;-78
2021/12/23 08:34:09;;;;;;;;;36.00;31.00;;;;;;;;4962622;28;45574;-78
2021/12/23 08:36:34;;;;;;;;;46.00;34.33;;;;;;;;4959926;28;45469;-78
2021/12/23 08:38:59;;;;;;;;;43.00;36.00;;;;;;;;4966560;28;45577;-78
2021/12/23 08:41:25;;;;;;;;;46.33;38.33;;;;;;;;4969794;28;45396;-78
2021/12/23 08:43:50;;;;;;;;;28.67;27.00;;;;;;;;4972984;28;45538;-78
2021/12/23 08:46:15;;;;;;;;;37.00;33.00;;;;;;;;4966583;28;45707;-78
2021/12/23 08:48:40;;;;;;;;;42.00;34.67;;;;;;;;4966706;28;45696;-78
2021/12/23 08:51:05;;;;;;;;;45.33;39.67;;;;;;;;4969204;28;45668;-67
2021/12/23 08:53:31;;;;;;;;;46.67;37.00;;;;;;;;4982341;28;45565;-66
2021/12/23 08:55:56;;;;;;;;;50.33;37.00;;;;;;;;4959362;28;46210;-65
2021/12/23 08:58:21;;;;;;;;;55.00;39.67;;;;;;;;4964627;28;45540;-66
2021/12/23 09:00:46;;;;;;;;;42.67;34.33;;;;;;;;4963119;28;45383;-67
2021/12/23 09:03:12;;;;;;;;;39.33;33.00;;;;;;;;4966235;28;45691;-69
2021/12/23 09:05:38;;;;;;;;;46.00;34.00;;;;;;;;4963909;28;45464;-69
2021/12/23 09:08:05;;;;;;;;;50.00;38.75;;;;;;;;4963064;28;45825;-69
2021/12/23 09:10:30;;;;;;;;;37.75;34.00;;;;;;;;4966263;28;45552;-69
2021/12/23 09:12:55;;;;;;;;;39.00;30.25;;;;;;;;4960629;28;45533;-68
2021/12/23 09:15:21;;;;;;;;;37.67;31.67;;;;;;;;4956292;28;46080;-69
2021/12/23 09:17:46;;;;;;;;;51.00;35.67;;;;;;;;4968055;28;45371;-78
2021/12/23 09:20:13;;;;;;;;;46.00;36.00;;;;;;;;4967019;28;45440;-79
2021/12/23 09:22:38;;;;;;;;;38.50;33.75;;;;;;;;4957740;28;45530;-79
2021/12/23 09:25:10;;;;;;;;;40.75;35.00;;;;;;;;4958482;28;46704;-78
2021/12/23 09:27:52;;;;;;;;;49.50;36.00;;;;;;;;4960810;28;46003;-77
2021/12/23 09:33:02;;;;;;;;;42.75;35.25;;;;;;;;4965924;28;45408;-78
2021/12/23 09:35:29;;;;;;;;;46.50;37.75;;;;;;;;4969336;28;50265;-78
2021/12/23 09:37:54;;;;;;;;;30.00;24.75;;;;;;;;4967515;28;46036;-78
2021/12/23 09:40:20;;;;;;;;;46.00;34.33;;;;;;;;4965661;28;45911;-78
2021/12/23 09:42:46;;;;;;;;;43.25;33.00;;;;;;;;4965458;28;47047;-78
2021/12/23 09:45:14;;;;;;;;;44.50;35.25;;;;;;;;4965281;28;45679;-79
2021/12/23 09:47:41;;;;;;;;;38.25;33.25;;;;;;;;4968105;28;45630;-78
2021/12/23 09:50:08;;;;;;;;;34.75;26.75;;;;;;;;4963129;28;45516;-79
2021/12/23 09:52:36;;;;;;;;;48.00;32.75;;;;;;;;4967249;28;45465;-78
2021/12/23 09:55:04;;;;;;;;;36.50;30.25;;;;;;;;4957238;28;45404;-78
2021/12/23 09:57:29;;;;;;;;;37.75;33.50;;;;;;;;4955879;28;45921;-78
2021/12/23 09:59:55;;;;;;;;;41.75;30.75;;;;;;;;4968441;28;45514;-78
2021/12/23 10:02:20;;;;;;;;;32.00;27.33;;;;;;;;4952715;28;45673;-79
2021/12/23 10:04:45;;;;;;;;;38.75;31.50;;;;;;;;4967140;28;46035;-78
2021/12/23 10:07:11;;;;;;;;;42.75;33.50;;;;;;;;4951471;28;46098;-78
2021/12/23 10:09:51;;;;;;;;;38.75;30.75;;;;;;;;4958281;28;45489;-78
2021/12/23 10:30:10;;;;;;;;;33.00;29.50;;;;;;;;4966847;28;45856;-78
2021/12/23 10:31:48;;;;;;;;;49.50;33.25;;;;;;;;4966177;28;45390;-78
2021/12/23 10:39:44;;;;;;;;;37.00;29.00;;;;;;;;4962632;28;45950;-77
2021/12/23 10:42:22;;;;;;;;;39.00;29.75;;;;;;;;4956969;28;45453;-79
2021/12/23 10:44:55;;;;;;;;;42.25;31.25;;;;;;;;4967713;28;45482;-78
2021/12/23 10:47:29;;;;;;;;;34.75;32.25;;;;;;;;5034006;28;46654;-79
2021/12/23 10:49:59;;;;;;;;;36.00;26.50;;;;;;;;4986716;28;45546;-78
2021/12/23 10:52:29;;;;;;;;;45.00;31.50;;;;;;;;4974546;28;45370;-79
2021/12/23 11:00:13;;;;;;;;;40.25;33.75;;;;;;;;4984127;28;45824;-79
2021/12/23 11:02:41;;;;;;;;;42.00;31.75;;;;;;;;4956131;28;45645;-79
2021/12/23 11:05:17;;;;;;;;;34.25;28.00;;;;;;;;5040719;28;45573;-79
2021/12/23 11:07:55;;;;;;;;;37.25;30.00;;;;;;;;4966115;28;47346;-80
2021/12/23 11:35:31;;;;;;;;;38.00;29.50;;;;;;;;4990481;28;45448;-81
2021/12/23 11:37:54;;;;;;;;;34.50;26.75;;;;;;;;4963757;28;45527;-81
2021/12/23 11:40:55;;;;;;;;;35.25;24.00;;;;;;;;4965831;28;46652;-80
2021/12/23 11:45:49;;;;;;;;;28.75;24.75;;;;;;;;4963282;28;45462;-79
2021/12/23 11:48:16;;;;;;;;;30.75;26.75;;;;;;;;4964014;28;45498;-79
2021/12/23 11:50:53;;;;;;;;;37.00;29.00;;;;;;;;4952234;28;46506;-79
2021/12/23 11:53:20;;;;;;;;;30.25;25.75;;;;;;;;4994371;28;46166;-80
2021/12/23 11:55:45;;;;;;;;;23.00;22.75;;;;;;;;4959665;28;45532;-80
2021/12/23 11:58:12;;;;;;;;;31.25;22.75;;;;;;;;4962101;28;45565;-80
2021/12/23 12:00:44;;;;;;;;;30.00;24.25;;;;;;;;4957027;28;45440;-80
2021/12/23 12:03:11;;;;;;;;;37.25;27.50;;;;;;;;4978149;28;45585;-80
2021/12/23 12:05:37;;;;;;;;;39.50;28.00;;;;;;;;4964878;28;45903;-80
2021/12/23 12:08:06;;;;;;;;;28.50;25.50;;;;;;;;4969905;28;45564;-80
2021/12/23 12:10:33;;;;;;;;;29.75;27.25;;;;;;;;4966343;28;45488;-80
2021/12/23 12:13:07;;;;;;;;;33.75;24.50;;;;;;;;4965575;28;45454;-80
2021/12/23 12:15:38;;;;;;;;;26.00;23.75;;;;;;;;4968063;28;45714;-80
2021/12/23 12:18:05;;;;;;;;;30.00;26.50;;;;;;;;4969751;28;45583;-80
2021/12/23 12:21:05;;;;;;;;;26.25;23.75;;;;;;;;4967661;28;45995;-80
2021/12/23 12:23:33;;;;;;;;;31.50;27.50;;;;;;;;4971126;28;45529;-80
2021/12/23 12:26:05;;;;;;;;;28.25;26.50;;;;;;;;4956303;28;45566;-80
2021/12/23 12:28:32;;;;;;;;;26.00;23.50;;;;;;;;4972830;28;45489;-81
2021/12/23 12:30:57;;;;;;;;;27.50;24.00;;;;;;;;4974978;27;46199;-79
2021/12/23 12:33:25;;;;;;;;;25.00;20.50;;;;;;;;4964167;28;45345;-79
2021/12/23 12:36:03;;;;;;;;;29.25;25.00;;;;;;;;4956553;28;45504;-80
2021/12/23 12:38:39;;;;;;;;;10.75;3.50;;;;;;;;4952917;28;45694;-80
2021/12/23 12:41:11;;;;;;;;;29.00;23.00;;;;;;;;4969432;28;45952;-79
2021/12/23 12:43:42;;;;;;;;;28.75;24.25;;;;;;;;4956981;28;45546;-80
2021/12/23 12:46:09;;;;;;;;;21.25;20.00;;;;;;;;4957807;28;45780;-78
2021/12/23 12:48:53;;;;;;;;;23.25;20.00;;;;;;;;4958697;28;45735;-80
2021/12/23 12:51:19;;;;;;;;;26.25;20.75;;;;;;;;4967149;28;46621;-80
2021/12/23 12:53:51;;;;;;;;;24.50;20.50;;;;;;;;4961412;28;46079;-80
2021/12/23 12:56:20;;;;;;;;;25.50;21.50;;;;;;;;4965890;28;45408;-80
2021/12/23 12:58:49;;;;;;;;;30.50;24.50;;;;;;;;4963335;28;45792;-78
2021/12/23 13:01:15;;;;;;;;;23.25;19.25;;;;;;;;4969398;28;45655;-79
2021/12/23 13:03:53;;;;;;;;;23.50;19.25;;;;;;;;4959908;28;45572;-80
2021/12/23 13:06:18;;;;;;;;;21.75;19.00;;;;;;;;4955778;28;45859;-79
2021/12/23 13:08:44;;;;;;;;;21.25;17.75;;;;;;;;4960841;28;45561;-81
2021/12/23 13:11:12;;;;;;;;;21.00;17.00;;;;;;;;4961891;28;45900;-81
2021/12/23 13:13:43;;;;;;;;;22.50;20.00;;;;;;;;4959438;28;46006;-79
2021/12/23 13:16:23;;;;;;;;;21.75;17.50;;;;;;;;4957719;28;45477;-81
2021/12/23 13:19:08;;;;;;;;;21.25;18.00;;;;;;;;4958949;28;45392;-81
2021/12/23 13:21:38;;;;;;;;;21.75;18.50;;;;;;;;4965052;28;45549;-81
2021/12/23 13:24:04;;;;;;;;;22.75;20.00;;;;;;;;4967497;28;45937;-81
2021/12/23 13:26:29;;;;;;;;;20.50;19.25;;;;;;;;4980308;28;45588;-81
2021/12/23 13:28:57;;;;;;;;;22.00;18.33;;;;;;;;4971314;28;45517;-81
2021/12/23 13:31:35;;;;;;;;;20.50;18.00;;;;;;;;4969819;27;45602;-81
2021/12/23 13:34:06;;;;;;;;;22.75;19.75;;;;;;;;4965759;28;45779;-80
2021/12/23 13:36:31;;;;;;;;;14.50;14.00;;;;;;;;4964108;28;45500;-81
2021/12/23 13:39:04;;;;;;;;;20.67;18.33;;;;;;;;5001090;28;45369;-81
2021/12/23 13:41:31;;;;;;;;;22.25;18.75;;;;;;;;4951381;28;48507;-81
2021/12/23 13:43:58;;;;;;;;;17.50;15.00;;;;;;;;4993809;28;45922;-81
2021/12/23 13:46:24;;;;;;;;;19.50;19.00;;;;;;;;4960277;28;45489;-81
2021/12/23 13:48:51;;;;;;;;;23.25;20.25;;;;;;;;4957217;28;45405;-81
2021/12/23 13:51:18;;;;;;;;;22.50;19.00;;;;;;;;4956764;28;46233;-81
2021/12/23 13:53:43;;;;;;;;;19.75;18.00;;;;;;;;4952514;28;45592;-81
2021/12/23 13:56:13;;;;;;;;;30.67;20.33;;;;;;;;4966465;28;45443;-80
2021/12/23 13:58:39;;;;;;;;;19.25;17.00;;;;;;;;4969987;28;45537;-80
2021/12/23 14:01:04;;;;;;;;;22.00;18.50;;;;;;;;4966629;28;46653;-82
2021/12/23 14:03:29;;;;;;;;;22.00;20.75;;;;;;;;4967190;28;45612;-81
2021/12/23 14:05:54;;;;;;;;;21.33;16.67;;;;;;;;4967038;28;45745;-81
2021/12/23 14:08:20;;;;;;;;;21.33;18.00;;;;;;;;4967349;28;45373;-81
2021/12/23 14:10:45;;;;;;;;;22.33;18.33;;;;;;;;4957194;28;45991;-80
2021/12/23 14:13:14;;;;;;;;;22.25;19.00;;;;;;;;4956252;28;45453;-80
2021/12/23 14:15:45;;;;;;;;;20.75;18.25;;;;;;;;4958399;28;45615;-80
2021/12/23 14:18:25;;;;;;;;;17.25;16.50;;;;;;;;4964781;28;45711;-70
2021/12/23 14:23:32;;;;;;;;;23.25;22.50;;;;;;;;4967189;28;46013;-69
2021/12/23 14:26:04;;;;;;;;;23.25;19.50;;;;;;;;4966916;28;45450;-69
2021/12/23 14:28:31;;;;;;;;;21.25;18.00;;;;;;;;4967769;28;45791;-69
2021/12/23 14:31:26;;;;;;;;;21.25;17.50;;;;;;;;4958898;28;45750;-69
2021/12/23 14:33:53;;;;;;;;;22.25;19.25;;;;;;;;4955448;28;45898;-69
2021/12/23 14:36:30;;;;;;;;;22.75;18.50;;;;;;;;4962745;28;45558;-69
2021/12/23 14:39:03;;;;;;;;;24.25;21.75;;;;;;;;4973694;28;45616;-69
2021/12/23 14:41:55;;;;;;;;;25.50;19.75;;;;;;;;4957924;28;46222;-69
2021/12/23 14:44:30;;;;;;;;;20.25;17.25;;;;;;;;4962356;28;45706;-69
2021/12/23 14:47:01;;;;;;;;;23.75;20.00;;;;;;;;4964874;28;45562;-68
2021/12/23 14:51:54;;;;;;;;;21.75;20.75;;;;;;;;4959476;28;45910;-69
2021/12/23 14:54:21;;;;;;;;;21.25;20.00;;;;;;;;4965703;28;45479;-70
2021/12/23 14:56:47;;;;;;;;;23.25;21.75;;;;;;;;4972809;28;45591;-69
2021/12/23 14:59:14;;;;;;;;;27.75;23.50;;;;;;;;4953183;28;45405;-69
2021/12/23 15:01:41;;;;;;;;;26.25;23.75;;;;;;;;4955878;28;46280;-70
2021/12/23 15:04:08;;;;;;;;;27.25;26.00;;;;;;;;4961698;28;45516;-68
2021/12/23 15:06:34;;;;;;;;;27.75;25.00;;;;;;;;4960176;28;45618;-69
2021/12/23 15:08:59;;;;;;;;;25.25;23.00;;;;;;;;4954131;28;45612;-68
2021/12/23 15:11:28;;;;;;;;;30.00;21.33;;;;;;;;4955832;28;45374;-69
2021/12/23 15:13:53;;;;;;;;;30.50;25.75;;;;;;;;4966683;28;45984;-70
2021/12/23 15:16:22;;;;;;;;;26.00;23.00;;;;;;;;4955946;28;45785;-69
2021/12/23 15:19:10;;;;;;;;;28.00;24.50;;;;;;;;4956102;28;45433;-70
2021/12/23 15:21:43;;;;;;;;;28.75;25.00;;;;;;;;4954417;28;46186;-68
2021/12/23 15:24:20;;;;;;;;;25.75;25.25;;;;;;;;4954856;28;46236;-70
2021/12/23 15:26:53;;;;;;;;;26.75;21.50;;;;;;;;4980349;27;45643;-69
2021/12/23 15:29:20;;;;;;;;;31.25;28.75;;;;;;;;4952685;28;45467;-72
2021/12/23 15:31:53;;;;;;;;;28.75;24.25;;;;;;;;4963769;28;46170;-70
2021/12/23 15:34:18;;;;;;;;;28.25;25.50;;;;;;;;4963970;28;45998;-70